createdAt,value
2022-08-31T00:01:32.669Z,98064.28
2022-08-31T00:04:06.953Z,98071.58
2022-08-31T00:06:40.852Z,98067.53
2022-08-31T00:09:14.138Z,98066.58
2022-08-31T00:11:47.504Z,98069.34
2022-08-31T00:14:21.395Z,98082.58
2022-08-31T00:16:55.081Z,98069.34
2022-08-31T00:19:28.304Z,98064.98
2022-08-31T00:22:01.770Z,98069.55
2022-08-31T00:24:36.788Z,98078.45
2022-08-31T00:27:10.220Z,98071.51
2022-08-31T00:54:27.800Z,98067.36
2022-08-31T00:57:02.081Z,98068.82
2022-08-31T00:59:36.576Z,98079.55
2022-08-31T01:02:10.395Z,98065.53
2022-08-31T01:04:43.848Z,98078.83
2022-08-31T01:07:20.840Z,98067.52
2022-08-31T01:09:56.260Z,98072.95
2022-08-31T01:12:32.429Z,98064.22
2022-08-31T01:15:10.720Z,98062.53
2022-08-31T01:17:45.480Z,98061.88
2022-08-31T01:20:23.275Z,98061.08
2022-08-31T01:23:06.663Z,98065.59
2022-08-31T01:25:43.091Z,98052.48
2022-08-31T01:28:16.919Z,98053.55
2022-08-31T01:31:02.909Z,98055.47
2022-08-31T01:33:38.830Z,98053.97
2022-08-31T01:36:15.953Z,98052.17
2022-08-31T01:38:52.988Z,98055.80
2022-08-31T01:41:24.114Z,98058.67
2022-08-31T01:43:57.389Z,98057.09
2022-08-31T01:46:30.741Z,98057.31
2022-08-31T01:49:06.816Z,98053.80
2022-08-31T01:51:41.133Z,98026.45
2022-08-31T01:54:14.486Z,98049.83
2022-08-31T01:56:50.133Z,98049.05
2022-08-31T01:59:27.383Z,98056.31
2022-08-31T02:02:06.195Z,98050.22
2022-08-31T02:04:41.360Z,98043.36
2022-08-31T02:07:14.645Z,98043.56
2022-08-31T02:09:49.117Z,98042.83
2022-08-31T02:12:26.453Z,98049.95
2022-08-31T02:15:01.099Z,98044.73
2022-08-31T02:17:36.747Z,98035.30
2022-08-31T02:20:14.279Z,98045.90
2022-08-31T02:22:48.822Z,98040.83
2022-08-31T02:25:23.560Z,98039.91
2022-08-31T02:27:56.916Z,98036.47
2022-08-31T02:30:30.872Z,98030.38
2022-08-31T02:33:04.380Z,98033.02
2022-08-31T02:35:39.121Z,98039.24
2022-08-31T02:38:13.011Z,98042.87
2022-08-31T02:40:47.791Z,98025.30
2022-08-31T02:43:24.953Z,98031.43
2022-08-31T02:45:59.945Z,98024.63
2022-08-31T02:48:36.017Z,98019.28
2022-08-31T02:51:12.539Z,98029.00
2022-08-31T02:53:45.934Z,98021.14
2022-08-31T02:56:20.383Z,98014.08
2022-08-31T02:58:55.407Z,98027.27
2022-08-31T03:01:29.734Z,98015.87
2022-08-31T03:04:03.190Z,98031.70
2022-08-31T03:06:44.159Z,98016.64
2022-08-31T03:09:17.505Z,98026.29
2022-08-31T03:11:50.723Z,98011.50
2022-08-31T03:14:24.443Z,98018.44
2022-08-31T03:16:57.803Z,98015.73
2022-08-31T03:19:31.024Z,98017.45
2022-08-31T03:22:04.833Z,98013.89
2022-08-31T03:24:37.958Z,98016.39
2022-08-31T03:27:11.470Z,98008.34
2022-08-31T03:29:44.826Z,98014.49
2022-08-31T03:32:20.314Z,98019.63
2022-08-31T03:34:57.091Z,98015.20
2022-08-31T03:37:30.796Z,98018.79
2022-08-31T03:40:06.758Z,98015.20
2022-08-31T03:42:41.260Z,98015.20
2022-08-31T03:45:15.882Z,98008.09
2022-08-31T03:47:49.601Z,98006.25
2022-08-31T03:50:23.423Z,98002.48
2022-08-31T03:52:58.364Z,97989.13
2022-08-31T03:55:32.581Z,97990.01
2022-08-31T03:58:06.738Z,98002.41
2022-08-31T04:00:40.540Z,97990.86
2022-08-31T04:03:15.568Z,97993.38
2022-08-31T04:06:10.848Z,98008.24
2022-08-31T04:11:45.136Z,97990.78
2022-08-31T04:14:27.827Z,97989.47
2022-08-31T04:17:04.265Z,97977.98
2022-08-31T04:19:45.279Z,97984.72
2022-08-31T04:22:25.961Z,97996.33
2022-08-31T04:25:18.534Z,97992.69
2022-08-31T04:27:54.516Z,97988.21
2022-08-31T04:30:28.230Z,97980.21
2022-08-31T04:33:06.715Z,97983.66
2022-08-31T04:35:41.968Z,97995.80
2022-08-31T04:38:15.480Z,97995.66
2022-08-31T04:40:49.109Z,97993.02
2022-08-31T04:43:24.356Z,97995.54
2022-08-31T04:45:57.783Z,97994.01
2022-08-31T04:48:31.424Z,97998.95
2022-08-31T04:51:08.839Z,97992.37
2022-08-31T04:53:42.953Z,98001.03
2022-08-31T04:56:19.145Z,97999.69
2022-08-31T04:58:57.736Z,98000.19
2022-08-31T05:01:43.010Z,97992.05
2022-08-31T05:07:08.029Z,97995.13
2022-08-31T05:09:41.948Z,97982.90
2022-08-31T05:12:15.462Z,98005.34
2022-08-31T05:14:48.830Z,97985.30
2022-08-31T05:17:26.955Z,97979.00
2022-08-31T05:20:00.457Z,98001.00
2022-08-31T05:22:36.182Z,97998.92
2022-08-31T05:25:11.531Z,97999.30
2022-08-31T05:27:48.778Z,97982.02
2022-08-31T05:30:22.597Z,97991.74
2022-08-31T05:33:00.590Z,97997.00
2022-08-31T05:35:38.718Z,98008.20
2022-08-31T05:38:12.908Z,97999.33
2022-08-31T05:40:48.305Z,97991.75
2022-08-31T05:43:24.665Z,98028.10
2022-08-31T05:45:58.940Z,98045.71
2022-08-31T05:48:33.827Z,98035.70
2022-08-31T05:51:11.430Z,98027.38
2022-08-31T05:53:50.363Z,98016.96
2022-08-31T05:56:26.493Z,98021.98
2022-08-31T05:59:01.441Z,98034.48
2022-08-31T06:01:41.879Z,98020.64
2022-08-31T06:04:16.854Z,98043.33
2022-08-31T06:06:50.593Z,98037.69
2022-08-31T06:09:27.371Z,98034.96
2022-08-31T06:12:01.574Z,98035.09
2022-08-31T06:14:36.500Z,98020.44
2022-08-31T06:17:09.678Z,98025.85
2022-08-31T06:19:43.775Z,98042.52
2022-08-31T06:22:22.096Z,98044.25
2022-08-31T06:24:58.443Z,98025.20
2022-08-31T06:27:35.284Z,98038.50
2022-08-31T06:30:12.388Z,98027.03
2022-08-31T06:32:49.461Z,98025.52
2022-08-31T06:35:24.581Z,98020.79
2022-08-31T06:38:11.931Z,98031.38
2022-08-31T06:40:46.946Z,98018.24
2022-08-31T06:43:40.537Z,98024.79
2022-08-31T06:46:33.589Z,98039.67
2022-08-31T06:49:13.693Z,98037.64
2022-08-31T06:51:49.449Z,98046.91
2022-08-31T06:54:30.188Z,98043.16
2022-08-31T06:57:21.164Z,98025.71
2022-08-31T07:00:16.518Z,98023.06
2022-08-31T07:02:57.214Z,98020.11
2022-08-31T07:05:27.469Z,98048.41
2022-08-31T07:08:05.313Z,98026.73
2022-08-31T07:10:39.646Z,98038.80
2022-08-31T07:13:13.474Z,98036.77
2022-08-31T07:15:47.858Z,98016.92
2022-08-31T07:18:21.829Z,98030.97
2022-08-31T07:20:55.941Z,98034.72
2022-08-31T07:23:33.828Z,98034.11
2022-08-31T07:26:13.062Z,98030.38
2022-08-31T07:28:49.241Z,98029.59
2022-08-31T07:31:26.387Z,98029.25
2022-08-31T07:34:00.532Z,98018.52
2022-08-31T07:36:33.855Z,98020.41
2022-08-31T07:39:26.265Z,98018.05
2022-08-31T07:42:10.476Z,98029.78
2022-08-31T07:44:53.061Z,98028.06
2022-08-31T07:47:22.597Z,98034.77
2022-08-31T07:49:55.800Z,98029.60
2022-08-31T07:52:48.819Z,98023.45
2022-08-31T07:55:30.293Z,98019.64
2022-08-31T07:58:06.371Z,98040.84
2022-08-31T08:00:40.326Z,98038.95
2022-08-31T08:03:15.500Z,98067.09
2022-08-31T08:05:55.177Z,98079.95
2022-08-31T08:09:06.639Z,98047.23
2022-08-31T08:11:28.072Z,98041.79
2022-08-31T08:14:08.907Z,98052.01
2022-08-31T08:16:44.889Z,98062.98
2022-08-31T08:19:36.700Z,98041.56
2022-08-31T08:22:10.818Z,98026.22
2022-08-31T08:24:47.675Z,98026.79
2022-08-31T08:27:29.435Z,98034.05
2022-08-31T08:30:05.543Z,98029.00
2022-08-31T08:32:40.479Z,98029.63
2022-08-31T08:35:17.898Z,98040.05
2022-08-31T08:37:59.134Z,98029.02
2022-08-31T08:40:33.998Z,98032.09
2022-08-31T08:43:07.570Z,98027.31
2022-08-31T08:45:42.861Z,98036.63
2022-08-31T08:48:20.339Z,98035.42
2022-08-31T08:50:54.034Z,98046.89
2022-08-31T08:53:30.901Z,98029.76
2022-08-31T08:56:31.851Z,98042.27
2022-08-31T08:58:47.499Z,98076.75
2022-08-31T09:01:25.702Z,98045.14
2022-08-31T09:04:03.899Z,98052.73
2022-08-31T09:09:40.549Z,98077.73
2022-08-31T09:12:25.335Z,98050.52
2022-08-31T09:15:22.133Z,98075.52
2022-08-31T09:18:01.787Z,98058.34
2022-08-31T09:20:35.582Z,98067.73
2022-08-31T09:23:09.672Z,98077.97
2022-08-31T09:25:54.047Z,98069.75
2022-08-31T09:28:42.268Z,98078.58
2022-08-31T09:31:33.087Z,98071.14
2022-08-31T09:34:12.683Z,98074.78
2022-08-31T09:36:47.047Z,98069.70
2022-08-31T09:39:25.678Z,98076.23
2022-08-31T09:42:04.700Z,98072.58
2022-08-31T09:44:38.396Z,98069.44
2022-08-31T09:47:18.362Z,98073.81
2022-08-31T09:49:57.850Z,98067.98
2022-08-31T09:52:57.356Z,98078.42
2022-08-31T09:55:30.821Z,98082.38
2022-08-31T09:58:07.630Z,98072.55
2022-08-31T10:00:44.335Z,98058.85
2022-08-31T10:03:23.663Z,98069.83
2022-08-31T10:05:57.650Z,98068.05
2022-08-31T10:08:42.486Z,98065.16
2022-08-31T10:11:18.886Z,98073.95
2022-08-31T10:13:56.547Z,98082.36
2022-08-31T10:16:30.555Z,98079.50
2022-08-31T10:19:07.568Z,98092.77
2022-08-31T10:21:48.709Z,98079.64
2022-08-31T10:24:29.200Z,98088.39
2022-08-31T10:27:15.119Z,98089.56
2022-08-31T10:29:55.030Z,98090.67
2022-08-31T10:32:33.202Z,98099.50
2022-08-31T10:35:10.673Z,98095.00
2022-08-31T10:38:04.243Z,98090.40
2022-08-31T10:40:41.738Z,98098.73
2022-08-31T10:43:20.338Z,98084.27
2022-08-31T10:45:57.184Z,98099.83
2022-08-31T10:48:30.861Z,98099.91
2022-08-31T10:51:13.251Z,98101.41
2022-08-31T10:53:52.806Z,98089.92
2022-08-31T10:56:30.762Z,98091.75
2022-08-31T10:59:12.770Z,98091.02
2022-08-31T11:01:52.429Z,98099.62
2022-08-31T11:05:03.988Z,98106.76
2022-08-31T11:07:46.979Z,98089.09
2022-08-31T11:10:27.349Z,98127.31
2022-08-31T11:13:03.874Z,98108.11
2022-08-31T11:15:53.377Z,98119.33
2022-08-31T11:18:41.499Z,98128.31
2022-08-31T11:21:47.548Z,98142.82
2022-08-31T11:24:37.141Z,98144.66
2022-08-31T11:27:14.557Z,98153.44
2022-08-31T11:29:48.028Z,98127.06
2022-08-31T11:32:24.848Z,98109.95
2022-08-31T11:35:01.399Z,98120.68
2022-08-31T11:37:59.178Z,98117.70
2022-08-31T11:43:53.905Z,98114.73
2022-08-31T11:46:51.789Z,98130.02
2022-08-31T11:49:50.071Z,98131.67
2022-08-31T11:52:50.905Z,98115.50
2022-08-31T11:55:28.700Z,98111.64
2022-08-31T11:58:20.185Z,98126.08
2022-08-31T12:00:56.778Z,98127.64
2022-08-31T12:07:15.388Z,98121.44
2022-08-31T12:10:26.759Z,98135.82
2022-08-31T12:13:20.250Z,98131.38
2022-08-31T12:16:04.481Z,98141.36
2022-08-31T12:18:47.510Z,98144.99
2022-08-31T12:21:41.782Z,98140.06
2022-08-31T12:24:26.603Z,98153.51
2022-08-31T12:27:06.621Z,98148.37
2022-08-31T12:29:42.700Z,98159.08
2022-08-31T12:32:30.081Z,98150.58
2022-08-31T12:35:09.315Z,98177.48
2022-08-31T12:37:43.643Z,98168.36
2022-08-31T12:40:23.266Z,98168.12
2022-08-31T12:43:01.645Z,98179.50
2022-08-31T12:46:07.642Z,98172.25
2022-08-31T12:48:57.303Z,98162.52
2022-08-31T12:51:40.689Z,98158.76
2022-08-31T12:54:23.153Z,98157.89
2022-08-31T12:57:00.009Z,98168.00
2022-08-31T12:59:59.373Z,98168.38
2022-08-31T13:02:16.549Z,98165.81
2022-08-31T13:04:51.300Z,98159.51
2022-08-31T13:07:28.668Z,98169.61
2022-08-31T13:10:12.290Z,98180.17
2022-08-31T13:12:53.530Z,98180.17
2022-08-31T13:15:29.364Z,98171.81
2022-08-31T13:18:04.545Z,98173.73
2022-08-31T13:20:43.634Z,98170.45
2022-08-31T13:23:20.519Z,98174.01
2022-08-31T13:26:05.930Z,98172.20
2022-08-31T13:28:39.425Z,98173.80
2022-08-31T13:31:17.392Z,98180.03
2022-08-31T13:33:51.647Z,98176.04
2022-08-31T13:36:32.559Z,98162.17
2022-08-31T13:39:08.947Z,98187.31
2022-08-31T13:41:45.209Z,98196.50
2022-08-31T13:44:21.391Z,98185.88
2022-08-31T13:46:59.239Z,98181.62
2022-08-31T13:49:36.452Z,98189.12
2022-08-31T13:52:13.856Z,98199.30
2022-08-31T13:54:48.682Z,98198.25
2022-08-31T13:57:26.030Z,98187.94
2022-08-31T14:00:03.220Z,98226.02
2022-08-31T14:02:38.470Z,98210.55
2022-08-31T14:05:13.085Z,98210.26
2022-08-31T14:08:03.139Z,98209.36
2022-08-31T14:10:38.504Z,98211.26
2022-08-31T14:13:20.296Z,98202.13
2022-08-31T14:15:58.969Z,98230.77
2022-08-31T14:18:38.034Z,98225.41
2022-08-31T14:21:25.484Z,98238.26
2022-08-31T14:24:02.596Z,98236.42
2022-08-31T14:26:37.698Z,98222.36
2022-08-31T14:29:15.665Z,98244.14
2022-08-31T14:31:59.198Z,98208.19
2022-08-31T14:34:40.465Z,98241.34
2022-08-31T14:37:20.338Z,98251.72
2022-08-31T14:39:57.830Z,98246.80
2022-08-31T14:42:35.630Z,98262.08
2022-08-31T14:45:15.391Z,98251.74
2022-08-31T14:47:53.029Z,98238.01
2022-08-31T14:50:31.177Z,98268.48
2022-08-31T14:53:09.655Z,98255.23
2022-08-31T14:55:45.067Z,98256.37
2022-08-31T14:58:21.116Z,98303.20
2022-08-31T15:00:55.036Z,98299.24
2022-08-31T15:03:30.162Z,98300.41
2022-08-31T15:06:04.584Z,98294.36
2022-08-31T15:08:39.048Z,98290.98
2022-08-31T15:11:12.586Z,98292.91
2022-08-31T15:13:46.004Z,98292.45
2022-08-31T15:16:19.223Z,98287.94
2022-08-31T15:18:54.436Z,98281.81
2022-08-31T15:21:28.244Z,98278.41
2022-08-31T15:24:01.453Z,98297.89
2022-08-31T15:26:34.732Z,98288.98
2022-08-31T15:29:08.695Z,98285.63
2022-08-31T15:31:46.847Z,98287.44
2022-08-31T15:34:29.786Z,98291.90
2022-08-31T15:37:12.184Z,98296.39
2022-08-31T15:39:47.517Z,98289.49
2022-08-31T15:42:21.737Z,98290.29
2022-08-31T15:44:57.477Z,98300.14
2022-08-31T15:47:50.669Z,98282.55
2022-08-31T15:50:31.869Z,98275.55
2022-08-31T15:53:11.747Z,98287.13
2022-08-31T15:55:47.006Z,98294.19
2022-08-31T15:58:25.291Z,98286.30
2022-08-31T16:00:59.907Z,98296.88
2022-08-31T16:03:39.053Z,98299.63
2022-08-31T16:06:15.139Z,98306.77
2022-08-31T16:20:29.503Z,98319.25
2022-08-31T16:23:03.541Z,98310.67
2022-08-31T16:25:48.483Z,98302.98
2022-08-31T16:28:14.014Z,98310.14
2022-08-31T16:30:48.045Z,98316.34
2022-08-31T16:33:26.340Z,98325.92
2022-08-31T16:36:00.295Z,98324.03
2022-08-31T16:38:36.431Z,98317.77
2022-08-31T16:41:11.228Z,98328.14
2022-08-31T16:44:03.514Z,98322.05
2022-08-31T16:46:39.941Z,98333.50
2022-08-31T16:49:13.264Z,98335.88
2022-08-31T16:51:49.709Z,98338.71
2022-08-31T16:54:23.927Z,98341.50
2022-08-31T16:56:58.857Z,98351.33
2022-08-31T16:59:36.496Z,98342.73
2022-08-31T17:02:12.473Z,98348.94
2022-08-31T17:04:54.620Z,98347.20
2022-08-31T17:07:23.941Z,98347.16
2022-08-31T17:10:01.691Z,98360.40
2022-08-31T17:12:38.473Z,98358.71
2022-08-31T17:15:14.055Z,98356.14
2022-08-31T17:17:48.229Z,98329.78
2022-08-31T17:20:22.391Z,98364.95
2022-08-31T17:22:56.071Z,98358.88
2022-08-31T17:25:37.057Z,98361.50
2022-08-31T17:28:10.578Z,98357.19
2022-08-31T17:30:46.829Z,98370.33
2022-08-31T17:33:22.135Z,98371.31
2022-08-31T17:35:55.379Z,98368.73
2022-08-31T17:38:28.776Z,98367.89
2022-08-31T17:41:11.984Z,98363.57
2022-08-31T17:43:48.431Z,98355.83
2022-08-31T17:46:23.205Z,98367.32
2022-08-31T17:49:01.228Z,98359.44
2022-08-31T17:51:36.249Z,98352.41
2022-08-31T17:54:12.965Z,98358.72
2022-08-31T17:56:49.148Z,98353.52
2022-08-31T17:59:26.890Z,98365.77
2022-08-31T18:02:03.594Z,98354.32
2022-08-31T18:04:41.153Z,98352.67
2022-08-31T18:07:15.751Z,98365.05
2022-08-31T18:09:49.137Z,98361.62
2022-08-31T18:12:25.949Z,98374.76
2022-08-31T18:14:59.376Z,98367.91
2022-08-31T18:17:34.616Z,98367.10
2022-08-31T18:20:12.640Z,98362.78
2022-08-31T18:22:52.727Z,98365.45
2022-08-31T18:25:31.409Z,98356.77
2022-08-31T18:28:06.755Z,98361.26
2022-08-31T18:30:41.428Z,98352.61
2022-08-31T18:33:17.256Z,98349.94
2022-08-31T18:35:52.927Z,98343.03
2022-08-31T18:38:26.252Z,98346.59
2022-08-31T18:41:19.772Z,98348.42
2022-08-31T18:44:13.292Z,98344.06
2022-08-31T18:46:47.050Z,98354.56
2022-08-31T18:49:22.712Z,98343.34
2022-08-31T18:52:00.612Z,98348.67
2022-08-31T18:54:36.638Z,98343.41
2022-08-31T18:57:11.494Z,98330.38
2022-08-31T18:59:45.071Z,98340.08
2022-08-31T19:02:20.352Z,98334.95
2022-08-31T19:04:54.192Z,98342.98
2022-08-31T19:07:31.908Z,98345.80
2022-08-31T19:10:12.911Z,98348.54
2022-08-31T19:12:48.011Z,98333.80
2022-08-31T19:15:58.035Z,98319.91
2022-08-31T19:18:24.178Z,98335.58
2022-08-31T19:20:57.437Z,98334.61
2022-08-31T19:23:31.253Z,98334.58
2022-08-31T19:26:05.516Z,98338.16
2022-08-31T19:28:38.840Z,98338.16
2022-08-31T19:31:14.984Z,98336.43
2022-08-31T19:33:56.551Z,98345.15
2022-08-31T19:36:32.650Z,98340.66
2022-08-31T19:39:10.811Z,98345.84
2022-08-31T19:41:50.137Z,98339.73
2022-08-31T19:44:22.524Z,98344.98
2022-08-31T19:46:57.807Z,98335.42
